Time;durP1;ratioP1;P1;durP2;ratioP2;P2;SDS_P1;SDS_P2;PMS_P1;PMS_P2;Temp;Humidity;BMP_temperature;BMP_pressure;BME280_temperature;BME280_humidity;BME280_pressure;Samples;Min_cycle;Max_cycle;Signal;HPM_P1;HPM_P2
2022/10/14 00:00:41;;;;;;;30.40;26.38;;;;;;;12.50;100.00;101488.50;5345016;27;20115;-80
2022/10/14 00:03:12;;;;;;;26.02;22.52;;;;;;;12.52;100.00;101488.34;5345173;27;20315;-80
2022/10/14 00:05:44;;;;;;;27.77;24.63;;;;;;;12.50;100.00;101488.50;5324091;27;20354;-80
2022/10/14 00:08:15;;;;;;;34.92;24.23;;;;;;;12.51;100.00;101492.00;5346604;27;20389;-80
2022/10/14 00:10:46;;;;;;;32.65;26.42;;;;;;;12.48;100.00;101488.63;5339433;27;20350;-80
2022/10/14 00:13:18;;;;;;;34.17;26.23;;;;;;;12.49;100.00;101494.81;5346396;27;20055;-80
2022/10/14 00:15:49;;;;;;;28.77;24.80;;;;;;;12.51;100.00;101492.84;5322689;27;20020;-80
2022/10/14 00:18:20;;;;;;;32.63;27.98;;;;;;;12.46;100.00;101495.97;5325454;27;20031;-80
2022/10/14 00:20:59;;;;;;;29.35;24.00;;;;;;;12.51;100.00;101487.50;5321108;28;20054;-80
2022/10/14 00:23:30;;;;;;;30.58;24.20;;;;;;;12.52;100.00;101494.56;5342144;27;20035;-80
2022/10/14 00:26:01;;;;;;;33.65;27.92;;;;;;;12.50;100.00;101488.50;5345076;27;20462;-80
2022/10/14 00:28:33;;;;;;;31.65;27.75;;;;;;;12.48;100.00;101496.66;5352737;27;20511;-80
2022/10/14 00:31:04;;;;;;;33.45;25.63;;;;;;;12.44;100.00;101476.50;5326947;27;20065;-80
2022/10/14 00:33:35;;;;;;;34.70;28.60;;;;;;;12.46;100.00;101484.38;5342535;27;20051;-80
2022/10/14 00:36:09;;;;;;;31.88;27.58;;;;;;;12.45;100.00;101480.03;5325072;27;20024;-80
2022/10/14 00:38:41;;;;;;;37.15;29.35;;;;;;;12.46;100.00;101474.56;5345002;27;20039;-80
2022/10/14 00:41:16;;;;;;;36.25;28.83;;;;;;;12.46;100.00;101465.66;5345042;27;20484;-80
2022/10/14 00:43:56;;;;;;;35.33;27.75;;;;;;;12.48;100.00;101461.00;5344405;27;20027;-80
2022/10/14 00:46:33;;;;;;;33.25;27.40;;;;;;;12.50;100.00;101469.78;5343659;27;21242;-80
2022/10/14 00:49:08;;;;;;;36.08;29.30;;;;;;;12.52;100.00;101469.59;5343600;27;20028;-80
2022/10/14 00:51:44;;;;;;;36.88;29.42;;;;;;;12.49;100.00;101458.19;5326410;27;20085;-80
2022/10/14 00:54:18;;;;;;;37.17;27.85;;;;;;;12.53;100.00;101457.94;5343583;27;20111;-80
2022/10/14 00:56:51;;;;;;;36.63;29.75;;;;;;;12.49;100.00;101455.53;5345768;27;20031;-80
2022/10/14 00:59:22;;;;;;;37.50;30.15;;;;;;;12.51;100.00;101454.56;5348718;27;20030;-80
2022/10/14 01:01:53;;;;;;;38.17;30.33;;;;;;;12.49;100.00;101450.16;5347504;27;20024;-80
2022/10/14 01:04:26;;;;;;;36.50;29.83;;;;;;;12.48;100.00;101451.19;5344128;27;20039;-80
2022/10/14 01:07:27;;;;;;;36.58;30.63;;;;;;;12.46;100.00;101444.25;5347029;27;20043;-80
2022/10/14 01:10:31;;;;;;;40.40;31.10;;;;;;;12.49;100.00;101447.50;5317977;27;21027;-80
2022/10/14 01:13:13;;;;;;;35.70;30.00;;;;;;;12.47;100.00;101443.28;5343902;27;20420;-80
2022/10/14 01:15:47;;;;;;;37.20;30.05;;;;;;;12.46;100.00;101444.25;5324194;27;20217;-81
2022/10/14 01:18:28;;;;;;;37.00;29.58;;;;;;;12.45;100.00;101446.09;5343713;27;20043;-80
2022/10/14 01:21:11;;;;;;;32.22;26.90;;;;;;;12.46;100.00;101431.75;5346471;27;20058;-80
2022/10/14 01:24:07;;;;;;;39.35;30.50;;;;;;;12.45;100.00;101430.03;5348157;27;20473;-81
2022/10/14 01:27:11;;;;;;;39.25;32.22;;;;;;;12.41;100.00;101417.94;5346997;27;20508;-81
2022/10/14 01:29:51;;;;;;;45.05;32.17;;;;;;;12.45;100.00;101414.00;5294942;27;20055;-81
2022/10/14 01:32:30;;;;;;;38.33;28.63;;;;;;;12.44;100.00;101406.09;5345116;27;20019;-80
2022/10/14 01:35:40;;;;;;;45.08;32.28;;;;;;;12.44;100.00;101406.09;5342711;27;20028;-81
2022/10/14 01:38:34;;;;;;;42.80;30.52;;;;;;;12.41;100.00;101393.88;5325072;28;20052;-81
2022/10/14 01:41:21;;;;;;;39.42;27.70;;;;;;;12.42;100.00;101395.53;5347946;27;20807;-81
2022/10/14 01:43:55;;;;;;;43.63;33.45;;;;;;;12.41;100.00;101391.19;5347224;27;20023;-81
2022/10/14 01:46:28;;;;;;;51.65;34.28;;;;;;;12.41;100.00;101390.31;5346911;27;20023;-80
2022/10/14 01:49:06;;;;;;;42.25;33.67;;;;;;;12.40;100.00;101385.97;5341003;27;20032;-81
2022/10/14 01:51:44;;;;;;;44.60;33.05;;;;;;;12.43;100.00;101389.22;5346117;27;20024;-81
2022/10/14 01:54:30;;;;;;;47.17;32.85;;;;;;;12.43;100.00;101383.88;5334825;27;20050;-81
2022/10/14 01:57:15;;;;;;;48.63;33.75;;;;;;;12.40;100.00;101392.16;5336706;27;20354;-80
2022/10/14 01:59:49;;;;;;;41.22;28.63;;;;;;;12.40;100.00;101394.00;5347668;27;20028;-81
2022/10/14 02:02:21;;;;;;;43.13;30.80;;;;;;;12.41;100.00;101384.97;5346277;27;20016;-81
2022/10/14 02:04:53;;;;;;;49.55;31.80;;;;;;;12.40;100.00;101389.50;5347806;27;20020;-81
2022/10/14 02:07:28;;;;;;;45.28;32.83;;;;;;;12.42;100.00;101384.84;5346427;27;20595;-81
2022/10/14 02:10:12;;;;;;;44.17;31.03;;;;;;;12.42;100.00;101374.13;5347392;27;20504;-81
2022/10/14 02:12:59;;;;;;;46.92;33.17;;;;;;;12.46;100.00;101378.22;5343224;27;20040;-81
2022/10/14 02:15:39;;;;;;;43.42;31.60;;;;;;;12.46;100.00;101372.03;5347750;27;22770;-81
2022/10/14 02:18:22;;;;;;;40.95;28.20;;;;;;;12.47;100.00;101371.88;5336906;27;20036;-81
2022/10/14 02:21:06;;;;;;;47.28;31.73;;;;;;;12.43;100.00;101364.25;5345954;27;20027;-81
2022/10/14 02:23:45;;;;;;;49.15;31.60;;;;;;;12.48;100.00;101367.38;5346877;27;20019;-81
2022/10/14 02:26:17;;;;;;;46.28;33.58;;;;;;;12.46;100.00;101370.22;5346007;27;20358;-81
2022/10/14 02:28:50;;;;;;;49.53;33.58;;;;;;;12.46;100.00;101364.00;5348271;27;20051;-81
2022/10/14 02:31:24;;;;;;;50.72;34.33;;;;;;;12.48;100.00;101368.22;5319929;27;20102;-81
2022/10/14 02:33:59;;;;;;;46.65;32.55;;;;;;;12.47;100.00;101368.38;5344752;27;20534;-81
2022/10/14 02:36:32;;;;;;;48.63;31.20;;;;;;;12.49;100.00;101363.72;5347416;27;20031;-81
2022/10/14 02:39:06;;;;;;;46.72;31.75;;;;;;;12.53;100.00;101364.28;5347561;27;20741;-81
2022/10/14 02:41:38;;;;;;;48.15;32.70;;;;;;;12.50;100.00;101357.38;5335608;27;20081;-81
2022/10/14 02:44:09;;;;;;;48.72;29.02;;;;;;;12.51;100.00;101366.25;5327206;27;20420;-81
2022/10/14 02:46:41;;;;;;;55.53;31.75;;;;;;;12.50;100.00;101354.72;5345738;27;20028;-81
2022/10/14 02:49:14;;;;;;;50.97;29.70;;;;;;;12.47;100.00;101363.03;5327835;27;20099;-81
2022/10/14 02:51:45;;;;;;;56.40;32.47;;;;;;;12.50;100.00;101354.72;5338759;27;20488;-81
2022/10/14 02:54:16;;;;;;;57.95;31.63;;;;;;;12.51;100.00;101353.72;5334026;27;20093;-81
2022/10/14 02:56:48;;;;;;;53.33;31.67;;;;;;;12.55;100.00;101347.09;5346585;27;30414;-81
2022/10/14 02:59:19;;;;;;;53.50;30.65;;;;;;;12.51;100.00;101348.34;5347084;27;20027;-81
2022/10/14 03:01:50;;;;;;;62.15;32.58;;;;;;;12.52;100.00;101339.34;5346862;27;20024;-81
2022/10/14 03:04:22;;;;;;;53.55;28.33;;;;;;;12.52;100.00;101336.69;5346823;27;20032;-81
2022/10/14 03:06:53;;;;;;;50.00;30.30;;;;;;;12.49;100.00;101337.78;5327411;27;20097;-81
2022/10/14 03:09:25;;;;;;;47.85;28.30;;;;;;;12.49;100.00;101339.63;5329946;27;20063;-81
2022/10/14 03:11:56;;;;;;;60.97;30.70;;;;;;;12.45;100.00;101332.88;5337683;27;20381;-81
2022/10/14 03:14:27;;;;;;;58.05;30.52;;;;;;;12.47;100.00;101339.78;5346284;27;20112;-81
2022/10/14 03:16:58;;;;;;;59.50;31.27;;;;;;;12.45;100.00;101331.06;5325011;27;20081;-81
2022/10/14 03:19:30;;;;;;;57.63;30.77;;;;;;;12.47;100.00;101329.06;5342155;27;20032;-81
2022/10/14 03:22:01;;;;;;;62.35;33.63;;;;;;;12.48;100.00;101327.22;5345342;27;20401;-81
2022/10/14 03:24:32;;;;;;;47.15;29.02;;;;;;;12.46;100.00;101322.06;5344445;27;20028;-81
2022/10/14 03:27:04;;;;;;;50.50;26.27;;;;;;;12.45;100.00;101327.53;5346507;27;20020;-81
2022/10/14 03:29:35;;;;;;;54.13;29.55;;;;;;;12.47;100.00;101320.22;5346152;27;20035;-81
2022/10/14 03:32:06;;;;;;;56.15;31.35;;;;;;;12.46;100.00;101307.81;5335876;27;20055;-81
2022/10/14 03:34:38;;;;;;;56.05;32.28;;;;;;;12.48;100.00;101308.50;5345862;27;20073;-81
2022/10/14 03:37:09;;;;;;;57.25;32.47;;;;;;;12.47;100.00;101307.66;5345921;27;20406;-81
2022/10/14 03:39:40;;;;;;;53.45;31.38;;;;;;;12.47;100.00;101306.84;5346486;27;20130;-81
2022/10/14 03:42:12;;;;;;;51.75;30.70;;;;;;;12.46;100.00;101305.13;5345426;27;20020;-81
2022/10/14 03:44:43;;;;;;;55.30;30.58;;;;;;;12.46;100.00;101302.44;5345099;27;20081;-81
2022/10/14 03:47:15;;;;;;;54.88;30.40;;;;;;;12.48;100.00;101297.78;5345903;27;20024;-81
2022/10/14 03:49:46;;;;;;;52.30;30.58;;;;;;;12.48;100.00;101301.34;5336789;27;20027;-81
2022/10/14 03:52:17;;;;;;;52.55;29.77;;;;;;;12.49;100.00;101292.31;5327935;27;20045;-81
2022/10/14 03:54:48;;;;;;;54.75;31.40;;;;;;;12.49;100.00;101297.66;5330853;27;20028;-81
2022/10/14 03:57:20;;;;;;;45.08;29.52;;;;;;;12.48;100.00;101298.66;5325917;27;20034;-81
2022/10/14 03:59:51;;;;;;;50.58;29.38;;;;;;;12.44;100.00;101291.06;5335232;27;20023;-81
2022/10/14 04:02:22;;;;;;;45.97;28.88;;;;;;;12.47;100.00;101291.63;5345418;27;20034;-81
2022/10/14 04:04:54;;;;;;;46.63;28.20;;;;;;;12.45;100.00;101290.91;5344487;27;20020;-81
2022/10/14 04:07:25;;;;;;;47.10;29.25;;;;;;;12.49;100.00;101288.81;5345039;27;20098;-81
2022/10/14 04:09:57;;;;;;;47.65;29.85;;;;;;;12.48;100.00;101287.09;5343869;27;20020;-81
2022/10/14 04:12:28;;;;;;;44.72;28.85;;;;;;;12.57;100.00;101286.25;5345636;27;20027;-81
2022/10/14 04:14:59;;;;;;;44.00;27.15;;;;;;;12.61;100.00;101276.94;5344495;27;20385;-81
2022/10/14 04:17:31;;;;;;;47.40;27.50;;;;;;;12.61;100.00;101284.13;5329005;28;20428;-81
2022/10/14 04:20:03;;;;;;;41.25;28.00;;;;;;;12.57;100.00;101285.38;5320801;27;20055;-81
2022/10/14 04:22:35;;;;;;;42.53;27.85;;;;;;;12.60;100.00;101288.63;5326213;27;20040;-81
2022/10/14 04:25:06;;;;;;;42.97;27.10;;;;;;;12.59;100.00;101278.91;5344260;27;20042;-81
2022/10/14 04:27:38;;;;;;;43.13;26.15;;;;;;;12.54;100.00;101273.16;5328568;27;20508;-80
2022/10/14 04:30:10;;;;;;;40.42;26.52;;;;;;;12.58;100.00;101269.19;5341432;27;20015;-80
2022/10/14 04:32:41;;;;;;;41.08;26.60;;;;;;;12.56;100.00;101262.31;5345768;27;20032;-81
2022/10/14 04:35:12;;;;;;;39.78;26.60;;;;;;;12.50;100.00;101258.41;5342681;27;20020;-81
2022/10/14 04:37:43;;;;;;;38.90;24.98;;;;;;;12.58;100.00;101271.88;5346448;27;20039;-81
2022/10/14 04:40:15;;;;;;;37.92;24.70;;;;;;;12.61;100.00;101266.22;5323335;27;20020;-81
2022/10/14 04:42:46;;;;;;;43.08;26.38;;;;;;;12.61;100.00;101258.19;5346226;27;20034;-80
2022/10/14 04:45:17;;;;;;;40.20;25.20;;;;;;;12.64;100.00;101265.09;5324998;27;20135;-81
2022/10/14 04:47:49;;;;;;;36.10;24.65;;;;;;;12.61;100.00;101258.19;5344383;27;20034;-80
2022/10/14 04:50:20;;;;;;;33.03;22.00;;;;;;;12.70;100.00;101263.69;5343460;27;20139;-81
2022/10/14 04:52:52;;;;;;;33.55;22.65;;;;;;;12.68;100.00;101258.47;5344573;27;20024;-81
2022/10/14 04:55:23;;;;;;;33.83;22.38;;;;;;;12.69;100.00;101260.13;5344475;27;20059;-80
2022/10/14 04:57:54;;;;;;;35.78;24.77;;;;;;;12.70;100.00;101250.31;5345600;27;20473;-81
2022/10/14 05:00:26;;;;;;;35.42;22.92;;;;;;;12.70;100.00;101237.75;5341663;27;20031;-81
2022/10/14 05:02:57;;;;;;;41.72;23.05;;;;;;;12.74;100.00;101249.00;5343884;27;20094;-80
2022/10/14 05:05:28;;;;;;;30.00;21.15;;;;;;;12.76;100.00;101255.91;5334004;27;20073;-80
2022/10/14 05:07:59;;;;;;;32.55;20.92;;;;;;;12.77;100.00;101251.41;5342949;27;20032;-80
2022/10/14 05:10:31;;;;;;;33.08;21.88;;;;;;;12.74;100.00;101246.34;5342653;27;20028;-80
2022/10/14 05:13:03;;;;;;;30.77;22.35;;;;;;;12.78;100.00;101239.69;5341615;27;20118;-80
2022/10/14 05:15:34;;;;;;;32.38;21.75;;;;;;;12.77;100.00;101241.53;5342521;27;20028;-80
2022/10/14 05:18:06;;;;;;;27.77;20.75;;;;;;;12.82;100.00;101230.38;5344266;27;20032;-80
2022/10/14 05:20:37;;;;;;;37.15;21.60;;;;;;;12.88;100.00;101236.97;5318567;27;20027;-80
2022/10/14 05:23:08;;;;;;;24.55;18.45;;;;;;;12.88;100.00;101227.09;5343926;27;20020;-80
2022/10/14 05:25:40;;;;;;;30.75;19.45;;;;;;;12.89;100.00;101227.97;5344211;27;20119;-80
2022/10/14 05:28:12;;;;;;;27.05;19.50;;;;;;;12.87;100.00;101228.13;5338933;27;20443;-80
2022/10/14 05:30:43;;;;;;;23.70;19.55;;;;;;;12.85;100.00;101220.22;5340377;27;20126;-80
2022/10/14 05:33:15;;;;;;;23.27;19.25;;;;;;;12.85;100.00;101206.84;5338226;27;20027;-80
2022/10/14 05:35:46;;;;;;;24.48;18.00;;;;;;;12.86;100.00;101203.16;5340790;27;20505;-80
2022/10/14 05:38:17;;;;;;;22.45;16.95;;;;;;;12.85;100.00;101198.81;5342590;27;20739;-80
2022/10/14 05:40:56;;;;;;;23.27;18.88;;;;;;;12.87;100.00;101214.72;5340908;27;20094;-80
2022/10/14 05:43:27;;;;;;;22.05;17.63;;;;;;;12.83;100.00;101203.47;5341094;27;20062;-80
2022/10/14 05:45:59;;;;;;;22.48;17.83;;;;;;;12.80;100.00;101203.75;5340395;27;20058;-80
2022/10/14 05:48:31;;;;;;;23.15;17.73;;;;;;;12.79;100.00;101194.03;5328692;27;20556;-80
2022/10/14 05:51:02;;;;;;;24.40;17.23;;;;;;;12.83;100.00;101195.44;5344161;27;20024;-80
2022/10/14 05:53:35;;;;;;;23.08;17.83;;;;;;;12.81;100.00;101183.19;5327977;27;20027;-80
2022/10/14 05:56:08;;;;;;;22.52;17.70;;;;;;;12.78;100.00;101180.78;5340543;27;20150;-80
2022/10/14 05:58:40;;;;;;;21.35;17.52;;;;;;;12.81;100.00;101180.50;5344682;27;20549;-80
2022/10/14 06:01:11;;;;;;;24.60;17.15;;;;;;;12.85;100.00;101195.28;5345062;27;20106;-80
2022/10/14 06:03:42;;;;;;;22.60;18.00;;;;;;;12.85;100.00;101193.44;5347134;27;20058;-81
2022/10/14 06:06:14;;;;;;;25.00;17.67;;;;;;;12.83;100.00;101192.75;5339932;27;20020;-80
2022/10/14 06:08:45;;;;;;;22.83;17.48;;;;;;;12.86;100.00;101188.94;5323238;27;20049;-80
2022/10/14 06:11:16;;;;;;;20.63;16.08;;;;;;;12.83;100.00;101187.41;5346724;27;20020;-80
2022/10/14 06:13:48;;;;;;;21.15;17.00;;;;;;;12.86;100.00;101181.72;5347625;27;20086;-80
2022/10/14 06:16:19;;;;;;;22.15;17.58;;;;;;;12.86;100.00;101172.88;5345743;27;20019;-80
2022/10/14 06:18:50;;;;;;;21.95;17.85;;;;;;;12.89;100.00;101180.63;5347319;27;20074;-80
2022/10/14 06:21:22;;;;;;;22.05;17.27;;;;;;;12.89;100.00;101177.94;5329259;27;20352;-80
2022/10/14 06:23:53;;;;;;;23.00;17.58;;;;;;;12.90;100.00;101170.75;5348312;27;20028;-80
2022/10/14 06:26:25;;;;;;;23.35;18.75;;;;;;;12.91;100.00;101172.44;5321469;28;20020;-80
2022/10/14 06:28:56;;;;;;;21.70;16.95;;;;;;;12.90;100.00;101170.75;5308272;28;20025;-80
2022/10/14 06:31:27;;;;;;;19.35;16.15;;;;;;;12.95;100.00;101174.66;5344974;27;20026;-80
2022/10/14 06:33:59;;;;;;;22.15;16.75;;;;;;;12.95;100.00;101171.97;5347453;27;20019;-80
2022/10/14 06:36:31;;;;;;;22.25;16.75;;;;;;;12.95;100.00;101174.66;5328242;27;20498;-80
2022/10/14 06:39:03;;;;;;;24.27;17.50;;;;;;;12.93;100.00;101171.28;5348102;27;20031;-80
2022/10/14 06:41:35;;;;;;;23.05;16.30;;;;;;;12.97;100.00;101163.78;5348241;27;20031;-80
2022/10/14 06:44:07;;;;;;;23.80;16.98;;;;;;;12.99;100.00;101165.34;5348152;27;20473;-80
2022/10/14 06:46:38;;;;;;;20.10;17.08;;;;;;;12.96;100.00;101162.97;5347893;27;20027;-80
2022/10/14 06:49:10;;;;;;;23.45;17.45;;;;;;;12.98;100.00;101171.66;5347478;27;20027;-80
2022/10/14 06:51:41;;;;;;;20.90;16.23;;;;;;;13.03;100.00;101164.03;5330396;27;20026;-80
2022/10/14 06:54:13;;;;;;;21.70;16.83;;;;;;;13.02;100.00;101164.19;5353097;27;20016;-81
2022/10/14 06:56:47;;;;;;;20.60;15.65;;;;;;;13.05;100.00;101166.56;5347620;27;20036;-80
2022/10/14 06:59:19;;;;;;;21.67;16.38;;;;;;;13.03;100.00;101163.19;5349204;27;20354;-80
2022/10/14 07:01:50;;;;;;;20.75;16.58;;;;;;;13.04;100.00;101155.03;5347047;27;20035;-80
2022/10/14 07:04:22;;;;;;;22.65;16.05;;;;;;;13.09;100.00;101154.53;5346569;27;20028;-80
2022/10/14 07:06:56;;;;;;;21.25;17.13;;;;;;;13.14;100.00;101154.94;5347838;27;20011;-80
2022/10/14 07:09:28;;;;;;;19.83;17.00;;;;;;;13.14;100.00;101160.28;5347571;27;20024;-80
2022/10/14 07:12:00;;;;;;;19.02;16.60;;;;;;;13.16;100.00;101139.56;5328594;27;20051;-80
2022/10/14 07:14:31;;;;;;;20.95;15.52;;;;;;;13.18;100.00;101147.44;5346790;27;20089;-80
2022/10/14 07:17:02;;;;;;;22.98;16.13;;;;;;;13.12;100.00;101146.22;5331767;27;20135;-80
2022/10/14 07:19:34;;;;;;;17.35;15.38;;;;;;;13.15;100.00;101151.28;5345325;27;20094;-81
2022/10/14 07:22:05;;;;;;;21.20;15.52;;;;;;;13.16;100.00;101152.09;5347395;27;20103;-81
2022/10/14 07:24:36;;;;;;;18.67;15.25;;;;;;;13.16;100.00;101162.81;5347562;27;20047;-81
2022/10/14 07:27:09;;;;;;;20.00;15.50;;;;;;;13.10;100.00;101164.28;5347446;27;20020;-81
2022/10/14 07:29:41;;;;;;;18.00;15.20;;;;;;;13.24;100.00;101165.59;5347598;27;20393;-81
2022/10/14 07:32:12;;;;;;;19.45;16.52;;;;;;;13.20;100.00;101173.09;5347265;27;20073;-80
2022/10/14 07:34:44;;;;;;;19.30;15.23;;;;;;;13.27;100.00;101165.31;5347473;27;20026;-81
2022/10/14 07:37:15;;;;;;;17.85;15.05;;;;;;;13.30;100.00;101166.81;5346141;27;20106;-81
2022/10/14 07:39:46;;;;;;;16.67;14.98;;;;;;;13.32;100.00;101164.84;5347627;27;20531;-81
2022/10/14 07:42:18;;;;;;;18.35;14.48;;;;;;;13.29;100.00;101163.31;5328688;27;20019;-82
2022/10/14 07:44:49;;;;;;;19.38;15.13;;;;;;;13.30;100.00;101162.28;5347575;27;20024;-82
2022/10/14 07:47:21;;;;;;;17.42;14.45;;;;;;;13.34;100.00;101160.19;5327743;27;20023;-80
2022/10/14 07:49:52;;;;;;;17.10;14.63;;;;;;;13.34;100.00;101155.69;5334292;27;20027;-80
2022/10/14 07:52:24;;;;;;;15.48;13.85;;;;;;;13.42;100.00;101155.75;5307016;28;20078;-80
2022/10/14 07:54:55;;;;;;;19.38;15.00;;;;;;;13.45;100.00;101157.28;5325646;28;20020;-80
2022/10/14 07:57:27;;;;;;;18.13;14.40;;;;;;;13.55;100.00;101162.56;5325694;28;20068;-80
2022/10/14 07:59:58;;;;;;;16.45;13.85;;;;;;;13.52;100.00;101153.00;5307238;28;20031;-80
2022/10/14 08:02:29;;;;;;;15.52;13.73;;;;;;;13.60;100.00;101152.22;5334904;27;20059;-80
2022/10/14 08:05:01;;;;;;;17.05;13.50;;;;;;;13.63;100.00;101146.56;5327533;27;20405;-80
2022/10/14 08:07:32;;;;;;;15.75;14.02;;;;;;;13.64;100.00;101142.88;5347276;27;20020;-80
2022/10/14 08:10:04;;;;;;;14.90;13.40;;;;;;;13.66;100.00;101156.13;5328719;27;20389;-80
2022/10/14 08:12:35;;;;;;;16.23;12.98;;;;;;;13.76;100.00;101151.50;5327818;27;20129;-80
2022/10/14 08:15:07;;;;;;;16.15;13.23;;;;;;;13.75;100.00;101152.50;5346728;27;20055;-80
2022/10/14 08:17:38;;;;;;;14.10;12.55;;;;;;;13.88;100.00;101146.75;5346027;27;20070;-80
2022/10/14 08:20:10;;;;;;;15.98;13.50;;;;;;;13.89;100.00;101143.06;5328063;27;20035;-80
2022/10/14 08:22:41;;;;;;;17.15;12.93;;;;;;;14.02;100.00;101139.97;5346324;27;20019;-80
2022/10/14 08:25:12;;;;;;;13.82;12.40;;;;;;;14.03;100.00;101131.75;5328192;27;20041;-80
2022/10/14 08:27:44;;;;;;;13.93;12.45;;;;;;;13.93;100.00;101123.81;5346522;27;20693;-80
2022/10/14 08:30:16;;;;;;;13.40;12.00;;;;;;;13.96;100.00;101134.22;5346819;27;20073;-81
2022/10/14 08:32:47;;;;;;;13.75;12.35;;;;;;;13.98;100.00;101148.31;5343489;27;20035;-80
2022/10/14 08:35:18;;;;;;;13.27;11.13;;;;;;;14.01;100.00;101136.44;5345878;27;20462;-80
2022/10/14 08:37:59;;;;;;;12.48;11.10;;;;;;;14.10;100.00;101140.84;5326606;27;20092;-80
2022/10/14 08:40:48;;;;;;;12.32;10.98;;;;;;;14.04;100.00;101146.84;5333684;27;20474;-80
2022/10/14 08:43:30;;;;;;;11.80;10.32;;;;;;;14.05;100.00;101143.16;5345584;27;20020;-81
2022/10/14 08:46:13;;;;;;;13.07;11.75;;;;;;;14.06;100.00;101131.44;5346287;27;20023;-80
2022/10/14 08:48:46;;;;;;;12.15;10.82;;;;;;;14.06;100.00;101134.13;5344508;27;20069;-80
2022/10/14 08:51:20;;;;;;;12.63;11.18;;;;;;;14.14;100.00;101133.34;5345968;27;20488;-80
2022/10/14 08:53:57;;;;;;;12.35;11.25;;;;;;;14.20;100.00;101135.41;5346021;27;20026;-80
2022/10/14 08:56:29;;;;;;;12.93;11.00;;;;;;;14.26;100.00;101137.44;5344923;27;20089;-80
2022/10/14 08:59:10;;;;;;;11.98;10.77;;;;;;;14.28;100.00;101138.09;5345887;27;20031;-80
2022/10/14 09:01:57;;;;;;;12.65;11.15;;;;;;;14.30;100.00;101137.94;5346127;27;20031;-80
2022/10/14 09:04:37;;;;;;;12.23;11.02;;;;;;;14.30;100.00;101133.41;5345095;27;20015;-80
2022/10/14 09:07:16;;;;;;;12.23;9.48;;;;;;;14.36;100.00;101130.09;5326871;27;20065;-80
2022/10/14 09:09:52;;;;;;;12.23;11.02;;;;;;;14.41;100.00;101132.31;5346082;27;20019;-80
2022/10/14 09:12:27;;;;;;;13.23;10.77;;;;;;;14.47;100.00;101126.28;5345519;27;20393;-80
2022/10/14 09:15:24;;;;;;;10.95;8.93;;;;;;;14.57;100.00;101128.88;5344596;27;20051;-80
2022/10/14 09:18:20;;;;;;;10.67;9.60;;;;;;;14.53;100.00;101128.34;5307358;28;20047;-80
2022/10/14 09:20:52;;;;;;;11.20;9.77;;;;;;;14.50;100.00;101122.47;5328030;28;20020;-80
2022/10/14 09:23:26;;;;;;;10.65;9.63;;;;;;;14.47;100.00;101114.72;5309632;28;20359;-80
2022/10/14 09:26:04;;;;;;;10.80;9.70;;;;;;;14.54;100.00;101127.31;5326097;28;20020;-80
2022/10/14 09:28:42;;;;;;;9.68;8.68;;;;;;;14.58;100.00;101111.78;5327922;28;20458;-80
2022/10/14 09:31:13;;;;;;;10.40;9.00;;;;;;;14.64;100.00;101113.81;5326072;28;20209;-80
2022/10/14 09:33:45;;;;;;;14.30;9.25;;;;;;;14.56;100.00;101108.38;5309056;28;20028;-80
2022/10/14 09:36:19;;;;;;;9.45;8.60;;;;;;;14.54;100.00;101118.44;5327900;28;20020;-80
2022/10/14 09:38:52;;;;;;;10.02;8.98;;;;;;;14.53;100.00;101116.75;5327257;28;20028;-80
2022/10/14 09:41:29;;;;;;;9.80;8.80;;;;;;;14.55;100.00;101107.53;5327752;27;20382;-81
2022/10/14 09:44:24;;;;;;;10.52;8.32;;;;;;;14.61;100.00;101105.25;5327211;28;20024;-80
2022/10/14 09:47:04;;;;;;;8.85;8.05;;;;;;;14.57;100.00;101099.34;5327769;28;20016;-80
2022/10/14 09:49:45;;;;;;;9.57;8.75;;;;;;;14.61;100.00;101107.94;5336578;27;20366;-80
2022/10/14 09:52:22;;;;;;;9.68;8.65;;;;;;;14.60;100.00;101100.88;5348759;27;20019;-80
2022/10/14 09:54:57;;;;;;;9.80;8.90;;;;;;;14.63;100.00;101101.38;5348254;27;20023;-80
2022/10/14 09:57:28;;;;;;;9.90;8.68;;;;;;;14.72;100.00;101108.44;5348325;27;20085;-80
2022/10/14 10:00:03;;;;;;;10.35;9.32;;;;;;;14.70;100.00;101098.91;5348866;27;20011;-80
2022/10/14 10:02:45;;;;;;;10.10;9.10;;;;;;;14.79;100.00;101099.75;5347954;27;20375;-80
2022/10/14 10:05:32;;;;;;;10.23;8.98;;;;;;;14.71;100.00;101092.53;5330141;27;20478;-80
2022/10/14 10:08:13;;;;;;;9.93;8.93;;;;;;;14.70;100.00;101093.53;5348790;27;20046;-80
2022/10/14 10:11:09;;;;;;;11.00;9.60;;;;;;;14.77;100.00;101091.03;5347068;27;20072;-80
2022/10/14 10:13:47;;;;;;;15.05;10.90;;;;;;;14.68;100.00;101095.53;5347492;27;20032;-80
2022/10/14 10:16:25;;;;;;;13.02;11.13;;;;;;;14.64;100.00;101092.34;5329486;27;20012;-81
2022/10/14 10:19:00;;;;;;;13.13;10.40;;;;;;;14.63;100.00;101095.19;5347415;27;20466;-80
2022/10/14 10:21:31;;;;;;;18.13;12.00;;;;;;;14.61;100.00;101084.59;5348058;27;20027;-81
2022/10/14 10:24:19;;;;;;;15.52;11.50;;;;;;;14.55;100.00;101074.47;5348574;27;20026;-81
2022/10/14 10:26:50;;;;;;;12.60;11.30;;;;;;;14.56;100.00;101076.16;5329216;27;20012;-80
2022/10/14 10:29:27;;;;;;;14.18;12.73;;;;;;;14.52;100.00;101072.13;5329127;27;20682;-81
2022/10/14 10:32:16;;;;;;;13.57;12.20;;;;;;;14.61;100.00;101065.81;5348231;27;20469;-80
2022/10/14 10:35:10;;;;;;;14.50;12.20;;;;;;;14.60;100.00;101077.53;5347925;27;20024;-80
2022/10/14 10:37:51;;;;;;;15.43;11.57;;;;;;;14.66;100.00;101071.53;5346088;27;20036;-80
2022/10/14 10:40:46;;;;;;;13.45;12.10;;;;;;;14.75;100.00;101065.19;5326530;28;20074;-80
2022/10/14 10:43:36;;;;;;;14.30;12.80;;;;;;;14.76;100.00;101066.00;5326703;28;20101;-80
2022/10/14 10:46:22;;;;;;;13.77;12.43;;;;;;;14.78;100.00;101073.91;5326631;28;20024;-80
2022/10/14 10:49:02;;;;;;;13.13;11.73;;;;;;;14.84;100.00;101067.88;5307069;28;20069;-80
2022/10/14 10:51:33;;;;;;;12.35;11.25;;;;;;;14.81;100.00;101068.22;5330160;27;20266;-80
2022/10/14 10:54:16;;;;;;;11.75;10.65;;;;;;;14.78;100.00;101061.34;5339397;27;20028;-80
2022/10/14 10:57:02;;;;;;;12.02;10.88;;;;;;;14.83;100.00;101058.13;5326341;28;20409;-80
2022/10/14 10:59:50;;;;;;;12.43;10.80;;;;;;;14.90;100.00;101059.16;5331956;27;20035;-80
2022/10/14 11:02:43;;;;;;;12.02;10.60;;;;;;;14.87;100.00;101054.97;5347659;27;20020;-80
2022/10/14 11:05:22;;;;;;;11.13;10.10;;;;;;;14.84;100.00;101049.09;5347558;27;20027;-80
2022/10/14 11:14:32;;;;;;;12.63;11.50;;;;;;;14.78;100.00;101042.53;5347041;27;20044;-80
2022/10/14 11:17:16;;;;;;;12.77;11.65;;;;;;;14.76;100.00;101044.53;5328276;27;20026;-80
2022/10/14 11:20:04;;;;;;;13.10;12.00;;;;;;;14.80;100.00;101042.38;5325365;28;20050;-80
2022/10/14 11:22:58;;;;;;;;;;;;;;;14.90;100.00;101037.66;5325978;28;20018;-80
2022/10/14 11:26:11;;;;;;;14.40;12.98;;;;;;;14.88;100.00;101045.91;5314079;28;19908;-81
2022/10/14 11:28:54;;;;;;;14.02;12.80;;;;;;;14.72;100.00;101049.38;5300801;28;20036;-80
2022/10/14 11:31:57;;;;;;;13.93;12.73;;;;;;;14.75;100.00;101043.69;5344370;27;20027;-80
2022/10/14 11:34:42;;;;;;;14.85;13.45;;;;;;;14.77;100.00;101031.97;5346690;27;20550;-80
2022/10/14 11:37:33;;;;;;;15.32;13.90;;;;;;;14.72;100.00;101027.91;5346822;27;20020;-80
2022/10/14 11:40:20;;;;;;;15.07;13.68;;;;;;;14.73;100.00;101028.78;5346429;27;20035;-80
2022/10/14 11:42:51;;;;;;;16.00;14.43;;;;;;;14.79;100.00;101017.34;5347298;27;20039;-80
2022/10/14 11:45:45;;;;;;;15.23;13.93;;;;;;;14.79;100.00;101014.66;5329184;27;20508;-80